Time;durP1;ratioP1;P1;durP2;ratioP2;P2;SDS_P1;SDS_P2;PMS_P1;PMS_P2;Temp;Humidity;BMP_temperature;BMP_pressure;BME280_temperature;BME280_humidity;BME280_pressure;Samples;Min_cycle;Max_cycle;Signal;HPM_P1;HPM_P2
2023/09/26 00:00:31;;;;;;;2.00;1.75;;;9.30;99.90;;;;;;5044360;28;20098;-41
2023/09/26 00:02:57;;;;;;;1.77;1.67;;;9.30;99.90;;;;;;5044087;28;20483;-39
2023/09/26 00:05:23;;;;;;;2.08;1.98;;;9.30;99.90;;;;;;5042826;28;20020;-37
2023/09/26 00:07:49;;;;;;;1.90;1.80;;;9.30;99.90;;;;;;5041217;28;20024;-36
2023/09/26 00:10:16;;;;;;;1.92;1.83;;;9.20;99.90;;;;;;5044045;28;20150;-39
2023/09/26 00:12:41;;;;;;;2.00;1.80;;;9.20;99.90;;;;;;5059212;28;20490;-38
2023/09/26 00:15:07;;;;;;;2.40;2.20;;;9.20;99.90;;;;;;5044665;28;20086;-41
2023/09/26 00:17:34;;;;;;;2.38;2.10;;;9.20;99.90;;;;;;5042349;28;20028;-39
2023/09/26 00:20:00;;;;;;;2.10;2.00;;;9.20;99.90;;;;;;5044693;28;20025;-40
2023/09/26 00:22:26;;;;;;;2.60;2.40;;;9.20;99.90;;;;;;5042794;28;20059;-40
2023/09/26 00:24:51;;;;;;;2.80;2.60;;;9.20;99.90;;;;;;5039141;28;20382;-41
2023/09/26 00:27:20;;;;;;;2.80;2.60;;;9.20;99.90;;;;;;5041041;28;20033;-39
2023/09/26 00:29:47;;;;;;;3.08;2.80;;;9.20;99.90;;;;;;5043334;28;20475;-39
2023/09/26 00:32:12;;;;;;;3.45;3.00;;;9.10;99.90;;;;;;5042315;28;20044;-35
2023/09/26 00:34:38;;;;;;;2.95;2.47;;;9.10;99.90;;;;;;5042940;28;20029;-39
2023/09/26 00:37:04;;;;;;;3.60;1.85;;;9.00;99.90;;;;;;5042249;28;20029;-42
2023/09/26 00:39:30;;;;;;;2.20;2.00;;;8.80;99.90;;;;;;5044254;28;20029;-39
2023/09/26 00:41:56;;;;;;;1.88;1.77;;;8.80;99.90;;;;;;5042790;28;20504;-38
2023/09/26 00:44:21;;;;;;;1.85;1.75;;;8.90;99.90;;;;;;5045490;28;20037;-30
2023/09/26 00:46:47;;;;;;;1.48;1.40;;;8.80;99.90;;;;;;5044264;28;20064;-33
2023/09/26 00:49:13;;;;;;;1.70;1.60;;;8.80;99.90;;;;;;5044439;28;20118;-31
2023/09/26 00:51:39;;;;;;;1.77;1.52;;;8.80;99.90;;;;;;5044704;28;20502;-33
2023/09/26 00:54:09;;;;;;;1.95;1.85;;;8.80;99.90;;;;;;5044125;28;20592;-39
2023/09/26 00:56:35;;;;;;;1.95;1.85;;;8.90;99.90;;;;;;5041451;28;20486;-41
2023/09/26 00:59:00;;;;;;;2.45;2.10;;;8.80;99.90;;;;;;5044164;28;20116;-42
2023/09/26 01:01:30;;;;;;;3.40;2.05;;;8.70;99.90;;;;;;5042237;28;20118;-41
2023/09/26 01:03:57;;;;;;;4.43;2.30;;;8.70;99.90;;;;;;5041959;28;20025;-34
2023/09/26 01:06:22;;;;;;;3.35;2.70;;;8.70;99.90;;;;;;5045188;28;20036;-33
2023/09/26 01:08:48;;;;;;;2.65;2.35;;;8.70;99.90;;;;;;5044786;28;20024;-32
2023/09/26 01:11:15;;;;;;;2.70;2.50;;;8.70;99.90;;;;;;5043405;28;20037;-32
2023/09/26 01:13:40;;;;;;;3.35;3.03;;;8.70;99.90;;;;;;5043356;28;20035;-34
2023/09/26 01:16:16;;;;;;;2.50;2.30;;;8.60;99.90;;;;;;5041923;28;20041;-32
2023/09/26 01:18:42;;;;;;;2.63;2.42;;;8.70;99.90;;;;;;5042734;28;20025;-35
2023/09/26 01:21:08;;;;;;;2.53;2.33;;;8.70;99.90;;;;;;5044889;28;20036;-34
2023/09/26 01:23:36;;;;;;;2.65;2.45;;;8.60;99.90;;;;;;5039121;28;20044;-38
2023/09/26 01:26:02;;;;;;;6.05;2.50;;;8.50;99.90;;;;;;5042205;28;20029;-33
2023/09/26 01:28:27;;;;;;;2.83;2.63;;;8.50;99.90;;;;;;5042783;28;20031;-33
2023/09/26 01:30:53;;;;;;;2.65;1.70;;;8.50;99.90;;;;;;5044197;28;20032;-35
2023/09/26 01:33:21;;;;;;;1.85;1.75;;;8.50;99.90;;;;;;5043358;28;20025;-31
2023/09/26 01:35:48;;;;;;;2.97;1.63;;;8.30;99.90;;;;;;5046447;28;20095;-40
2023/09/26 01:38:14;;;;;;;1.70;1.60;;;8.20;99.90;;;;;;5043020;28;20501;-30
2023/09/26 01:40:41;;;;;;;1.63;1.52;;;8.30;99.90;;;;;;5045361;28;20037;-37
2023/09/26 01:43:06;;;;;;;1.70;1.40;;;8.30;99.90;;;;;;5045045;28;20044;-36
2023/09/26 01:45:32;;;;;;;1.60;1.50;;;8.30;99.90;;;;;;5044821;28;20041;-33
2023/09/26 01:47:59;;;;;;;1.77;1.67;;;8.30;99.90;;;;;;5045776;28;20033;-33
2023/09/26 01:50:26;;;;;;;4.65;2.08;;;8.30;99.90;;;;;;5045887;28;20072;-35
2023/09/26 01:52:52;;;;;;;2.83;2.53;;;8.30;99.90;;;;;;5042273;28;20049;-33
2023/09/26 01:55:19;;;;;;;4.95;2.42;;;8.30;99.90;;;;;;5045198;28;20029;-32
2023/09/26 01:57:45;;;;;;;2.92;2.60;;;8.30;99.90;;;;;;5045273;28;20040;-35
2023/09/26 02:00:12;;;;;;;5.20;2.30;;;8.40;99.90;;;;;;5039154;28;20781;-34
2023/09/26 02:02:42;;;;;;;2.15;2.05;;;8.20;99.90;;;;;;5044579;28;20025;-33
2023/09/26 02:05:12;;;;;;;2.80;2.22;;;8.10;99.90;;;;;;5047924;28;20025;-32
2023/09/26 02:07:38;;;;;;;1.58;1.48;;;8.10;99.90;;;;;;5043428;28;20471;-33
2023/09/26 02:10:05;;;;;;;1.80;1.70;;;7.90;99.90;;;;;;5050691;28;20517;-34
2023/09/26 02:12:38;;;;;;;1.80;1.70;;;7.70;99.90;;;;;;5051329;28;20449;-36
2023/09/26 02:15:05;;;;;;;1.80;1.70;;;7.70;99.90;;;;;;5045835;28;20697;-32
2023/09/26 02:17:33;;;;;;;1.70;1.60;;;7.70;99.90;;;;;;5044086;28;20029;-33
2023/09/26 02:20:00;;;;;;;3.28;2.20;;;7.80;99.90;;;;;;5048397;28;20036;-32
2023/09/26 02:22:25;;;;;;;1.80;1.70;;;7.80;99.90;;;;;;5044363;28;20095;-33
2023/09/26 02:24:52;;;;;;;2.78;2.58;;;7.90;99.90;;;;;;5046917;28;20509;-32
2023/09/26 02:27:17;;;;;;;2.45;2.25;;;7.90;99.90;;;;;;5046328;28;20040;-35
2023/09/26 02:29:44;;;;;;;2.30;2.10;;;7.90;99.90;;;;;;5045136;28;20033;-32
2023/09/26 02:32:10;;;;;;;2.13;1.95;;;7.80;99.90;;;;;;5047801;28;20494;-32
2023/09/26 02:34:35;;;;;;;3.92;2.13;;;7.80;99.90;;;;;;5047509;28;20099;-35
2023/09/26 02:37:01;;;;;;;2.42;2.10;;;7.80;99.90;;;;;;5046756;28;20035;-32
2023/09/26 02:39:27;;;;;;;2.50;2.30;;;7.90;99.90;;;;;;5047198;28;20056;-32
2023/09/26 02:41:52;;;;;;;9.95;3.00;;;8.00;99.90;;;;;;5046609;28;20069;-33
2023/09/26 02:44:18;;;;;;;2.38;1.98;;;7.90;99.90;;;;;;5046619;28;20383;-33
2023/09/26 02:46:43;;;;;;;3.75;2.47;;;8.00;99.90;;;;;;5047339;28;20402;-32
2023/09/26 02:49:09;;;;;;;2.67;1.90;;;8.00;99.90;;;;;;5045542;28;20029;-32
2023/09/26 02:51:35;;;;;;;2.63;2.00;;;8.00;99.90;;;;;;5042005;28;20079;-35
2023/09/26 02:54:00;;;;;;;2.40;2.20;;;8.00;99.90;;;;;;5044830;28;20067;-30
2023/09/26 02:56:26;;;;;;;3.00;2.25;;;8.00;99.90;;;;;;5043489;28;20159;-31
2023/09/26 02:58:53;;;;;;;2.55;2.20;;;7.90;99.90;;;;;;5045032;28;20074;-30
2023/09/26 03:01:19;;;;;;;3.35;2.75;;;7.90;99.90;;;;;;5043730;28;20087;-33
2023/09/26 03:03:45;;;;;;;3.25;2.83;;;8.00;99.90;;;;;;5044915;28;20028;-38
2023/09/26 03:06:11;;;;;;;5.70;3.08;;;7.90;99.90;;;;;;5041885;28;20037;-38
2023/09/26 03:08:36;;;;;;;5.18;3.10;;;8.00;99.90;;;;;;5043068;28;20032;-38
2023/09/26 03:11:03;;;;;;;6.95;3.35;;;8.00;99.90;;;;;;5044217;28;20029;-38
2023/09/26 03:13:32;;;;;;;3.58;2.88;;;7.90;99.90;;;;;;5043217;28;20178;-37
2023/09/26 03:15:58;;;;;;;3.55;2.85;;;7.90;99.90;;;;;;5043672;28;20438;-39
2023/09/26 03:18:25;;;;;;;4.25;3.80;;;7.90;99.90;;;;;;5042329;28;20036;-39
2023/09/26 03:20:50;;;;;;;3.03;2.70;;;7.90;99.90;;;;;;5043351;28;20031;-39
2023/09/26 03:23:16;;;;;;;3.25;2.55;;;7.90;99.90;;;;;;5045601;28;20090;-39
2023/09/26 03:25:41;;;;;;;4.43;3.05;;;8.00;99.90;;;;;;5044332;28;20378;-39
2023/09/26 03:28:07;;;;;;;22.65;3.63;;;8.00;99.90;;;;;;5045650;28;20032;-39
2023/09/26 03:30:33;;;;;;;3.67;2.90;;;8.00;99.90;;;;;;5043827;28;20040;-37
2023/09/26 03:32:58;;;;;;;4.00;3.42;;;8.00;99.90;;;;;;5041274;28;20037;-37
2023/09/26 03:35:24;;;;;;;3.72;3.10;;;7.90;99.90;;;;;;5033597;28;20029;-32
2023/09/26 03:37:49;;;;;;;5.18;2.90;;;7.80;99.90;;;;;;5033307;28;20754;-32
2023/09/26 03:40:15;;;;;;;3.17;2.83;;;7.70;99.90;;;;;;5036836;28;20785;-36
2023/09/26 03:42:40;;;;;;;2.58;2.38;;;7.70;99.90;;;;;;5046256;28;20660;-34
2023/09/26 03:45:07;;;;;;;2.22;2.13;;;7.80;99.90;;;;;;5042690;28;20102;-32
2023/09/26 03:47:33;;;;;;;2.45;2.25;;;7.70;99.90;;;;;;5043426;28;20087;-32
2023/09/26 03:49:59;;;;;;;4.68;2.30;;;7.70;99.90;;;;;;5043468;28;20478;-33
2023/09/26 03:52:24;;;;;;;2.90;2.30;;;7.80;99.90;;;;;;5045522;28;20438;-34
2023/09/26 03:54:50;;;;;;;2.72;2.50;;;7.80;99.90;;;;;;5041888;28;20119;-35
2023/09/26 03:57:16;;;;;;;3.15;2.28;;;7.80;99.90;;;;;;5045064;28;20029;-33
2023/09/26 03:59:41;;;;;;;3.20;2.67;;;7.80;99.90;;;;;;5043503;28;20067;-33
2023/09/26 04:02:07;;;;;;;3.03;2.50;;;7.80;99.90;;;;;;5043537;28;20029;-32
2023/09/26 04:04:33;;;;;;;4.95;3.00;;;7.80;99.90;;;;;;5043347;28;20446;-33
2023/09/26 04:06:59;;;;;;;4.00;2.95;;;7.70;99.90;;;;;;5040833;28;20108;-32
2023/09/26 04:09:24;;;;;;;3.90;2.78;;;7.70;99.90;;;;;;5046316;28;20035;-33
2023/09/26 04:11:50;;;;;;;3.47;2.70;;;7.70;99.90;;;;;;5044234;28;20668;-34
2023/09/26 04:14:16;;;;;;;2.90;2.70;;;7.70;99.90;;;;;;5043654;28;20037;-35
2023/09/26 04:16:41;;;;;;;3.08;2.60;;;7.70;99.90;;;;;;5041665;28;20039;-33
2023/09/26 04:19:08;;;;;;;3.67;3.30;;;7.70;99.90;;;;;;5041972;28;20033;-33
2023/09/26 04:21:34;;;;;;;4.03;3.15;;;7.70;99.90;;;;;;5044750;28;20029;-37
2023/09/26 04:24:04;;;;;;;3.08;2.78;;;7.70;99.90;;;;;;5043115;28;20148;-32
2023/09/26 04:26:29;;;;;;;4.47;2.85;;;7.60;99.90;;;;;;5041971;28;20033;-34
2023/09/26 04:28:55;;;;;;;3.35;2.97;;;7.60;99.90;;;;;;5038494;28;22776;-35
2023/09/26 04:31:21;;;;;;;4.05;2.85;;;7.60;99.90;;;;;;5043306;28;20060;-35
2023/09/26 04:33:50;;;;;;;3.05;2.75;;;7.60;99.90;;;;;;5044155;28;20029;-32
2023/09/26 04:36:15;;;;;;;3.28;2.97;;;7.60;99.90;;;;;;5039675;28;20033;-35
2023/09/26 04:38:41;;;;;;;4.15;3.33;;;7.60;99.90;;;;;;5042918;28;20025;-35
2023/09/26 04:41:07;;;;;;;3.50;2.85;;;7.60;99.90;;;;;;5035946;28;20029;-35
2023/09/26 04:43:33;;;;;;;3.60;3.13;;;7.50;99.90;;;;;;5042201;28;20102;-33
2023/09/26 04:45:59;;;;;;;3.67;2.97;;;7.60;99.90;;;;;;5044465;28;20032;-39
2023/09/26 04:48:25;;;;;;;4.55;3.05;;;7.60;99.90;;;;;;5043298;28;20029;-38
2023/09/26 04:50:51;;;;;;;4.75;3.17;;;7.60;99.90;;;;;;5045250;28;20039;-37
2023/09/26 04:53:17;;;;;;;3.50;3.17;;;7.50;99.90;;;;;;5038923;28;20028;-39
2023/09/26 04:55:42;;;;;;;3.72;3.42;;;7.60;99.90;;;;;;5040731;28;20037;-39
2023/09/26 04:58:09;;;;;;;4.80;3.53;;;7.50;99.90;;;;;;5042399;28;20063;-38
2023/09/26 05:00:36;;;;;;;3.70;3.13;;;7.60;99.90;;;;;;5039412;28;20060;-37
2023/09/26 05:03:02;;;;;;;4.05;3.58;;;7.60;99.90;;;;;;5045240;28;20029;-39
2023/09/26 05:05:28;;;;;;;17.58;4.55;;;7.60;99.90;;;;;;5042817;28;20022;-40
2023/09/26 05:07:54;;;;;;;4.43;3.45;;;7.60;99.90;;;;;;5032151;28;20055;-39
2023/09/26 05:10:20;;;;;;;5.78;3.63;;;7.60;99.90;;;;;;5029151;28;20063;-38
2023/09/26 05:12:46;;;;;;;6.35;3.40;;;7.60;99.90;;;;;;5028187;28;20033;-37
2023/09/26 05:15:15;;;;;;;4.05;3.65;;;7.60;99.90;;;;;;5027709;28;20032;-35
2023/09/26 05:17:47;;;;;;;5.30;3.55;;;7.60;99.90;;;;;;5028255;28;20025;-34
2023/09/26 05:20:14;;;;;;;4.93;3.92;;;7.70;99.90;;;;;;5040982;28;20060;-39
2023/09/26 05:22:41;;;;;;;7.35;4.60;;;7.70;99.90;;;;;;5048613;28;20124;-40
2023/09/26 05:25:07;;;;;;;5.55;3.90;;;7.70;99.90;;;;;;5046799;28;20386;-36
2023/09/26 05:27:33;;;;;;;8.00;4.10;;;7.80;99.90;;;;;;5048160;28;20055;-31
2023/09/26 05:29:59;;;;;;;5.78;4.75;;;7.80;99.90;;;;;;5046785;28;20486;-32
2023/09/26 05:32:25;;;;;;;5.68;4.22;;;7.90;99.90;;;;;;5049277;28;20068;-31
2023/09/26 05:34:51;;;;;;;5.40;3.80;;;7.90;99.90;;;;;;5043796;28;20037;-31
2023/09/26 05:37:16;;;;;;;5.75;4.63;;;8.00;99.90;;;;;;5042950;28;20116;-31
2023/09/26 05:39:42;;;;;;;19.65;5.88;;;8.00;99.90;;;;;;5047726;28;20025;-30
2023/09/26 05:42:10;;;;;;;10.13;5.55;;;8.00;99.90;;;;;;5053435;28;20083;-31
2023/09/26 05:44:37;;;;;;;11.50;5.15;;;8.00;99.90;;;;;;5050100;28;20076;-34
2023/09/26 05:47:03;;;;;;;9.65;5.45;;;8.00;99.90;;;;;;5053567;28;20055;-31
2023/09/26 05:49:29;;;;;;;6.63;5.22;;;8.10;99.90;;;;;;5048347;28;20429;-30
2023/09/26 05:51:55;;;;;;;10.25;5.75;;;8.10;99.90;;;;;;5064793;28;20020;-33
2023/09/26 05:54:21;;;;;;;7.28;5.30;;;8.20;99.90;;;;;;5045796;28;20029;-34
2023/09/26 05:56:46;;;;;;;7.60;5.10;;;8.20;99.90;;;;;;5044893;28;20032;-33
2023/09/26 05:59:12;;;;;;;6.30;4.28;;;8.30;99.90;;;;;;5049411;28;20045;-33
2023/09/26 06:01:38;;;;;;;10.02;6.10;;;8.30;99.90;;;;;;5046843;28;20029;-34
2023/09/26 06:04:04;;;;;;;9.70;5.55;;;8.40;99.90;;;;;;5050906;28;20033;-33
2023/09/26 06:06:32;;;;;;;7.80;5.53;;;8.40;99.90;;;;;;5048222;28;20061;-33
2023/09/26 06:08:58;;;;;;;10.18;5.72;;;8.40;99.90;;;;;;5040186;28;20040;-33
2023/09/26 06:11:24;;;;;;;8.65;5.68;;;8.50;99.90;;;;;;5068350;28;20495;-34
2023/09/26 06:13:52;;;;;;;9.50;6.05;;;8.50;99.90;;;;;;5049397;28;20033;-33
2023/09/26 06:16:19;;;;;;;69.97;10.18;;;8.60;99.90;;;;;;5033535;28;20032;-33
2023/09/26 06:18:44;;;;;;;16.40;7.15;;;8.60;99.90;;;;;;5050250;28;20025;-33
2023/09/26 06:21:13;;;;;;;49.20;9.25;;;8.60;99.90;;;;;;5064934;28;20033;-36
2023/09/26 06:23:38;;;;;;;28.25;9.10;;;8.60;99.90;;;;;;5045042;28;20025;-33
2023/09/26 06:26:04;;;;;;;25.10;7.07;;;8.70;99.90;;;;;;5048767;28;20490;-33
2023/09/26 06:28:30;;;;;;;15.95;6.30;;;8.70;99.90;;;;;;5047039;28;20520;-32
2023/09/26 06:30:56;;;;;;;15.27;7.72;;;8.70;99.90;;;;;;5041395;28;20063;-33
2023/09/26 06:33:21;;;;;;;13.48;6.30;;;8.80;99.90;;;;;;5040419;28;20028;-33
2023/09/26 06:35:47;;;;;;;20.58;7.97;;;8.80;99.90;;;;;;5046193;28;20042;-29
2023/09/26 06:38:13;;;;;;;15.80;9.48;;;8.90;99.90;;;;;;5044903;28;20037;-32
2023/09/26 06:40:39;;;;;;;10.85;6.57;;;8.90;99.90;;;;;;5049584;28;20063;-33
2023/09/26 06:43:05;;;;;;;20.52;6.95;;;8.90;99.90;;;;;;5049305;28;20898;-31
2023/09/26 06:45:30;;;;;;;9.88;6.05;;;9.00;99.90;;;;;;5044555;28;20141;-30
2023/09/26 06:47:57;;;;;;;9.48;6.53;;;9.00;99.90;;;;;;5042102;28;20032;-30
2023/09/26 06:50:22;;;;;;;11.43;6.63;;;9.10;99.90;;;;;;5046851;28;20024;-31
2023/09/26 06:52:48;;;;;;;9.70;6.07;;;9.10;99.90;;;;;;5040786;28;20021;-29
2023/09/26 06:55:14;;;;;;;10.40;5.68;;;9.20;99.90;;;;;;5048276;28;20052;-31
2023/09/26 06:57:40;;;;;;;7.40;6.18;;;9.10;99.90;;;;;;5060741;28;20453;-29
2023/09/26 07:00:16;;;;;;;8.27;6.10;;;9.20;99.90;;;;;;5048479;28;20028;-29
2023/09/26 07:02:43;;;;;;;7.68;5.88;;;9.20;99.90;;;;;;5049827;28;20039;-33
2023/09/26 07:05:09;;;;;;;9.02;6.40;;;9.30;99.90;;;;;;5061353;28;20030;-33
2023/09/26 07:07:35;;;;;;;16.25;7.13;;;9.40;99.90;;;;;;5046617;28;20095;-35
2023/09/26 07:10:04;;;;;;;9.38;6.55;;;9.50;99.90;;;;;;5063530;28;20029;-33
2023/09/26 07:12:30;;;;;;;7.60;5.63;;;9.60;99.90;;;;;;5045764;28;20104;-33
2023/09/26 07:14:56;;;;;;;9.43;6.72;;;9.60;99.90;;;;;;5041371;28;20115;-33
2023/09/26 07:17:22;;;;;;;10.35;7.70;;;9.70;99.90;;;;;;5042942;28;20024;-32
2023/09/26 07:19:51;;;;;;;12.77;6.65;;;9.70;99.90;;;;;;5039286;28;20512;-32
2023/09/26 07:22:17;;;;;;;17.35;7.82;;;9.80;99.90;;;;;;5045503;28;20050;-34
2023/09/26 07:24:47;;;;;;;8.43;6.50;;;9.80;99.90;;;;;;5042540;28;20391;-34
2023/09/26 07:27:13;;;;;;;17.05;6.95;;;9.80;99.90;;;;;;5045703;28;20032;-36
2023/09/26 07:29:38;;;;;;;12.80;8.50;;;10.00;99.90;;;;;;5041678;28;21522;-35
2023/09/26 07:32:04;;;;;;;23.55;7.55;;;10.00;99.90;;;;;;5045682;28;20102;-32
2023/09/26 07:34:30;;;;;;;12.75;6.78;;;10.10;99.90;;;;;;5041804;28;20038;-32
2023/09/26 07:36:56;;;;;;;11.93;7.10;;;10.20;99.90;;;;;;5041755;28;20356;-32
2023/09/26 07:39:21;;;;;;;22.33;8.05;;;10.20;99.90;;;;;;5044625;28;20024;-32
2023/09/26 07:41:47;;;;;;;9.18;6.70;;;10.30;99.90;;;;;;5039269;28;20594;-32
2023/09/26 07:44:13;;;;;;;14.15;7.15;;;10.30;99.90;;;;;;5047053;28;20127;-36
2023/09/26 07:46:38;;;;;;;10.20;6.95;;;10.40;99.90;;;;;;5041639;28;20360;-39
2023/09/26 07:49:04;;;;;;;28.38;8.02;;;10.40;99.90;;;;;;5044166;28;20486;-40
2023/09/26 07:51:31;;;;;;;12.38;7.05;;;10.50;99.90;;;;;;5044783;28;20040;-37
2023/09/26 07:53:57;;;;;;;9.95;7.10;;;10.50;99.90;;;;;;5048837;28;20104;-38
2023/09/26 07:56:22;;;;;;;12.73;7.72;;;10.60;99.90;;;;;;5048318;28;20131;-30
2023/09/26 07:58:51;;;;;;;12.95;7.80;;;10.70;99.90;;;;;;5061846;28;20040;-30
2023/09/26 08:01:16;;;;;;;11.75;7.70;;;10.70;99.90;;;;;;5045973;28;20119;-31
2023/09/26 08:03:43;;;;;;;12.23;7.65;;;10.70;99.90;;;;;;5045558;28;20558;-30
2023/09/26 08:06:09;;;;;;;12.43;8.35;;;10.90;99.90;;;;;;5045078;28;20029;-30
2023/09/26 08:08:36;;;;;;;21.63;8.63;;;11.00;99.90;;;;;;5041995;28;20041;-33
2023/09/26 08:11:10;;;;;;;15.63;9.30;;;11.10;99.90;;;;;;5047311;28;20731;-29
2023/09/26 08:13:37;;;;;;;12.73;8.27;;;11.20;99.90;;;;;;5043694;28;20039;-30
2023/09/26 08:16:03;;;;;;;15.20;9.68;;;11.20;99.90;;;;;;5072737;28;20065;-33
2023/09/26 08:18:29;;;;;;;21.65;9.70;;;11.40;99.90;;;;;;5037574;28;20057;-32
2023/09/26 08:20:57;;;;;;;14.18;8.88;;;11.50;99.90;;;;;;5047378;28;20017;-35
2023/09/26 08:23:28;;;;;;;17.23;8.80;;;11.40;99.90;;;;;;5050739;28;20029;-32
2023/09/26 08:25:56;;;;;;;17.33;9.88;;;11.40;99.90;;;;;;5033369;28;20116;-32
2023/09/26 08:28:22;;;;;;;15.82;8.60;;;11.40;99.90;;;;;;5041200;28;20033;-33
2023/09/26 08:30:48;;;;;;;16.23;8.77;;;11.60;99.90;;;;;;5035698;28;20063;-35
2023/09/26 08:33:13;;;;;;;17.42;10.07;;;11.70;99.90;;;;;;5037846;28;20061;-33
2023/09/26 08:35:39;;;;;;;14.13;10.02;;;11.80;99.90;;;;;;5045410;28;20039;-33
2023/09/26 08:38:05;;;;;;;25.05;12.15;;;11.80;99.90;;;;;;5042012;28;20041;-32
2023/09/26 08:40:31;;;;;;;37.33;11.80;;;11.90;99.90;;;;;;5042079;28;20420;-32
2023/09/26 08:42:57;;;;;;;18.65;10.73;;;12.10;99.90;;;;;;5040971;28;20475;-32
2023/09/26 08:45:26;;;;;;;22.05;12.57;;;12.30;99.90;;;;;;5051472;28;20037;-32
2023/09/26 08:47:53;;;;;;;;;;;12.50;99.90;;;;;;5066124;28;20024;-32
2023/09/26 08:50:19;;;;;;;22.35;13.38;;;12.80;99.90;;;;;;5046706;28;19916;-33
2023/09/26 08:52:44;;;;;;;21.17;13.23;;;13.00;99.90;;;;;;5059787;28;20034;-35
2023/09/26 08:55:10;;;;;;;25.38;13.93;;;13.20;99.90;;;;;;5063569;28;20039;-38
2023/09/26 08:57:38;;;;;;;24.63;14.20;;;13.40;99.90;;;;;;5050912;28;20048;-35
2023/09/26 09:00:08;;;;;;;21.92;13.75;;;13.60;99.90;;;;;;5069252;28;21742;-36
2023/09/26 09:02:34;;;;;;;25.20;15.77;;;13.90;99.90;;;;;;5039377;28;20037;-33
2023/09/26 09:04:59;;;;;;;27.90;17.05;;;14.10;99.90;;;;;;5047508;28;20070;-39
2023/09/26 09:07:26;;;;;;;30.73;17.25;;;14.40;99.90;;;;;;5048668;28;20029;-39
2023/09/26 09:10:10;;;;;;;30.05;17.45;;;14.70;99.90;;;;;;5045501;28;20049;-40
2023/09/26 09:12:37;;;;;;;30.27;18.23;;;14.90;99.90;;;;;;5048707;28;20029;-39
2023/09/26 09:15:23;;;;;;;31.35;17.35;;;15.20;99.90;;;;;;5047184;28;20039;-39
2023/09/26 09:17:51;;;;;;;30.67;17.30;;;15.30;99.90;;;;;;5047392;28;20387;-35
2023/09/26 09:20:37;;;;;;;29.10;16.73;;;15.20;99.90;;;;;;5048108;28;20025;-37
2023/09/26 09:23:05;;;;;;;29.13;16.25;;;15.50;99.90;;;;;;5048045;28;20029;-39
2023/09/26 09:25:35;;;;;;;24.60;14.23;;;15.70;99.90;;;;;;5050198;28;20067;-33
2023/09/26 09:28:03;;;;;;;29.27;17.63;;;15.90;99.90;;;;;;5049637;28;20066;-31
2023/09/26 09:30:29;;;;;;;28.23;16.17;;;15.90;99.90;;;;;;5049599;28;20086;-30
2023/09/26 09:32:56;;;;;;;22.45;13.23;;;16.00;99.90;;;;;;5052888;28;20196;-34
2023/09/26 09:35:22;;;;;;;22.83;14.95;;;16.20;99.90;;;;;;5044363;28;20116;-31
2023/09/26 09:37:50;;;;;;;22.75;14.02;;;16.30;99.90;;;;;;5046208;28;20041;-30
2023/09/26 09:40:19;;;;;;;20.42;12.93;;;16.50;99.90;;;;;;5058052;28;20514;-34
2023/09/26 09:42:49;;;;;;;15.43;10.93;;;16.70;99.90;;;;;;5043784;28;20029;-30
2023/09/26 09:45:15;;;;;;;17.58;12.52;;;16.80;99.90;;;;;;5045719;28;20049;-31
2023/09/26 09:47:43;;;;;;;26.58;13.00;;;17.00;99.90;;;;;;5046245;28;20044;-31
2023/09/26 09:50:10;;;;;;;19.33;12.10;;;17.10;99.90;;;;;;5049847;28;20031;-31
2023/09/26 09:52:39;;;;;;;16.63;11.40;;;17.20;99.90;;;;;;5040906;28;20438;-34
2023/09/26 09:55:09;;;;;;;18.25;11.82;;;17.40;99.90;;;;;;5051581;28;20028;-31
2023/09/26 09:57:37;;;;;;;18.63;12.18;;;17.40;99.90;;;;;;5049601;28;20028;-35
2023/09/26 10:00:05;;;;;;;19.40;12.27;;;17.50;99.90;;;;;;5047141;28;20051;-30
2023/09/26 10:02:31;;;;;;;17.95;11.15;;;17.60;99.90;;;;;;5043479;28;20079;-32
2023/09/26 10:05:00;;;;;;;18.25;12.35;;;17.70;99.90;;;;;;5045089;28;20029;-30
2023/09/26 10:07:29;;;;;;;17.45;10.90;;;17.60;99.90;;;;;;5048489;28;20037;-34
2023/09/26 10:09:56;;;;;;;21.15;12.73;;;17.60;99.90;;;;;;5046668;28;20529;-30
2023/09/26 10:12:24;;;;;;;21.15;12.35;;;17.60;99.90;;;;;;5052570;28;20109;-30
2023/09/26 10:14:50;;;;;;;17.25;12.38;;;17.60;99.90;;;;;;5046799;28;20040;-33
2023/09/26 10:17:17;;;;;;;15.25;10.75;;;17.80;99.90;;;;;;5047554;28;20425;-34
2023/09/26 10:19:42;;;;;;;18.38;11.60;;;18.10;99.90;;;;;;5052084;28;20036;-34
2023/09/26 10:22:19;;;;;;;16.25;11.20;;;18.20;99.90;;;;;;5046594;28;20628;-34
2023/09/26 10:24:52;;;;;;;19.15;12.52;;;18.40;99.90;;;;;;5046398;28;20029;-32
2023/09/26 10:27:36;;;;;;;16.42;10.85;;;18.50;99.90;;;;;;5046125;28;20078;-33
2023/09/26 10:30:01;;;;;;;17.45;11.18;;;18.60;99.90;;;;;;5047678;28;20029;-32
2023/09/26 10:32:35;;;;;;;16.92;10.05;;;18.60;99.90;;;;;;5044493;28;20037;-33
2023/09/26 10:35:21;;;;;;;15.57;10.00;;;18.50;99.90;;;;;;5047239;28;20037;-31
2023/09/26 10:37:53;;;;;;;14.95;9.73;;;18.70;99.90;;;;;;5037061;28;20561;-30
2023/09/26 10:40:19;;;;;;;13.52;9.60;;;18.80;99.90;;;;;;5046944;28;20483;-33
2023/09/26 10:42:49;;;;;;;13.95;8.63;;;18.90;99.90;;;;;;5051141;28;20025;-35
2023/09/26 10:45:16;;;;;;;15.82;9.50;;;19.00;99.90;;;;;;5044703;28;20048;-31
2023/09/26 10:47:42;;;;;;;14.82;9.60;;;19.10;99.90;;;;;;5049424;28;20079;-30
2023/09/26 10:50:12;;;;;;;15.70;10.57;;;19.00;99.90;;;;;;5047700;28;20418;-30
2023/09/26 10:52:41;;;;;;;13.75;8.50;;;19.10;99.90;;;;;;5048401;28;20437;-31
2023/09/26 10:55:10;;;;;;;10.27;7.93;;;19.20;99.90;;;;;;5050120;28;20029;-30
2023/09/26 10:57:37;;;;;;;12.27;8.38;;;19.60;99.90;;;;;;5040633;28;20136;-30
2023/09/26 11:00:11;;;;;;;10.02;7.72;;;19.80;99.90;;;;;;5045659;28;20514;-30
2023/09/26 11:02:36;;;;;;;12.80;8.90;;;20.00;99.90;;;;;;5043137;28;20079;-32
2023/09/26 11:05:10;;;;;;;12.02;8.55;;;19.80;99.90;;;;;;5046978;28;20021;-31
2023/09/26 11:07:37;;;;;;;13.38;9.00;;;19.80;99.90;;;;;;5041611;28;20367;-35
2023/09/26 11:10:03;;;;;;;12.07;8.97;;;19.80;99.90;;;;;;5049226;28;20417;-32
2023/09/26 11:12:30;;;;;;;11.93;7.95;;;19.80;99.90;;;;;;5042155;28;20021;-31
2023/09/26 11:14:57;;;;;;;11.77;8.52;;;20.00;99.90;;;;;;5044453;28;20500;-31
2023/09/26 11:17:26;;;;;;;12.52;8.35;;;19.90;99.90;;;;;;5047054;28;20484;-33
2023/09/26 11:19:52;;;;;;;11.05;8.15;;;20.00;99.90;;;;;;5047267;28;20021;-33
2023/09/26 11:22:17;;;;;;;11.55;7.90;;;19.90;99.90;;;;;;5044856;28;20033;-30
2023/09/26 11:24:43;;;;;;;11.40;6.70;;;19.80;99.90;;;;;;5045602;28;20090;-32
2023/09/26 11:27:09;;;;;;;8.80;5.20;;;20.00;99.90;;;;;;5039970;28;20071;-36
2023/09/26 11:29:35;;;;;;;6.70;5.18;;;19.90;99.90;;;;;;5046959;28;20021;-39
2023/09/26 11:32:03;;;;;;;7.13;5.25;;;19.90;99.90;;;;;;5044960;28;20033;-33
2023/09/26 11:34:29;;;;;;;;;;;20.00;99.90;;;;;;5042263;28;20031;-33
2023/09/26 11:36:57;;;;;;;8.27;5.50;;;20.00;99.90;;;;;;5045081;28;19923;-35
2023/09/26 11:39:24;;;;;;;6.15;4.60;;;19.90;99.90;;;;;;5048287;28;20512;-35
2023/09/26 11:42:06;;;;;;;11.52;7.07;;;19.70;99.90;;;;;;5045475;28;20043;-32
2023/09/26 11:44:32;;;;;;;9.27;6.40;;;19.60;99.90;;;;;;5045534;28;20036;-40
2023/09/26 11:46:58;;;;;;;9.85;7.03;;;19.50;99.90;;;;;;5042169;28;20386;-40
2023/09/26 11:49:24;;;;;;;10.05;6.78;;;19.60;99.90;;;;;;5062756;28;20064;-41
2023/09/26 11:51:52;;;;;;;8.30;6.70;;;19.60;99.90;;;;;;5059233;28;20037;-40
2023/09/26 11:54:18;;;;;;;9.20;6.45;;;19.70;99.90;;;;;;5046008;28;20086;-40
2023/09/26 11:56:45;;;;;;;7.95;6.15;;;19.60;99.90;;;;;;5047087;28;20509;-40
2023/09/26 11:59:12;;;;;;;9.35;6.95;;;19.70;99.90;;;;;;5063139;28;20037;-35
2023/09/26 12:01:41;;;;;;;7.97;6.00;;;19.70;99.90;;;;;;5044837;28;20124;-37
2023/09/26 12:04:11;;;;;;;6.68;5.65;;;19.60;99.90;;;;;;5039341;28;20033;-41
2023/09/26 12:06:38;;;;;;;7.88;6.15;;;19.70;99.90;;;;;;5045302;28;20052;-38
2023/09/26 12:09:08;;;;;;;7.65;5.10;;;19.80;99.90;;;;;;5045649;28;20037;-40
2023/09/26 12:11:34;;;;;;;7.57;6.78;;;19.80;99.90;;;;;;5047376;28;20032;-39
2023/09/26 12:14:00;;;;;;;8.55;6.32;;;19.90;99.90;;;;;;5043454;28;20063;-40
2023/09/26 12:16:29;;;;;;;9.30;5.80;;;19.90;99.90;;;;;;5047456;28;20434;-39
2023/09/26 12:18:55;;;;;;;8.55;6.65;;;19.90;99.90;;;;;;5040649;28;21055;-39
2023/09/26 12:21:21;;;;;;;6.43;5.00;;;20.00;99.90;;;;;;5049738;28;20477;-39
2023/09/26 12:23:47;;;;;;;6.85;5.70;;;20.10;99.90;;;;;;5045021;28;20059;-40
2023/09/26 12:26:12;;;;;;;5.90;4.50;;;20.10;99.90;;;;;;5047958;28;20075;-37
2023/09/26 12:28:38;;;;;;;4.65;4.00;;;20.10;99.90;;;;;;5045099;28;20021;-35
2023/09/26 12:31:04;;;;;;;6.70;4.47;;;20.20;99.90;;;;;;5044735;28;20510;-39
2023/09/26 12:33:29;;;;;;;7.78;5.40;;;20.40;99.90;;;;;;5042630;28;20025;-40
2023/09/26 12:35:56;;;;;;;6.38;5.22;;;20.30;99.90;;;;;;5046644;28;20029;-30
2023/09/26 12:38:22;;;;;;;9.07;5.57;;;20.40;99.90;;;;;;5049717;28;20348;-29
2023/09/26 12:40:47;;;;;;;4.93;4.20;;;20.30;99.90;;;;;;5050474;28;20036;-29
2023/09/26 12:43:13;;;;;;;5.43;4.07;;;20.40;99.90;;;;;;5047277;28;20616;-31
2023/09/26 12:45:39;;;;;;;6.70;4.30;;;20.50;99.90;;;;;;5031214;28;20037;-29